sensor_id;sensor_type;location;lat;lon;timestamp;pressure;altitude;pressure_sealevel;temperature;humidity
27958;BME280;15295;42.658;23.374;2023-04-25T00:01:11;93876.22;;;17.07;56.04
27958;BME280;15295;42.658;23.374;2023-04-25T00:03:38;93873.47;;;17.07;55.49
27958;BME280;15295;42.658;23.374;2023-04-25T00:06:04;93878.56;;;17.17;55.64
27958;BME280;15295;42.658;23.374;2023-04-25T00:08:30;93866.31;;;17.18;55.69
27958;BME280;15295;42.658;23.374;2023-04-25T00:10:58;93852.97;;;17.17;55.78
27958;BME280;15295;42.658;23.374;2023-04-25T00:13:24;93847.88;;;17.15;56.31
27958;BME280;15295;42.658;23.374;2023-04-25T00:15:51;93847.44;;;17.17;56.38
27958;BME280;15295;42.658;23.374;2023-04-25T00:18:18;93846.81;;;17.13;56.51
27958;BME280;15295;42.658;23.374;2023-04-25T00:20:45;93836.69;;;17.10;56.82
27958;BME280;15295;42.658;23.374;2023-04-25T00:23:15;93842.94;;;17.01;56.95
27958;BME280;15295;42.658;23.374;2023-04-25T00:25:43;93826.44;;;16.70;58.06
27958;BME280;15295;42.658;23.374;2023-04-25T00:28:09;93818.56;;;16.29;59.52
27958;BME280;15295;42.658;23.374;2023-04-25T00:30:36;93808.03;;;16.37;58.93
27958;BME280;15295;42.658;23.374;2023-04-25T00:33:01;93812.50;;;16.43;58.95
27958;BME280;15295;42.658;23.374;2023-04-25T00:35:27;93806.09;;;16.46;58.78
27958;BME280;15295;42.658;23.374;2023-04-25T00:37:54;93817.06;;;16.37;59.29
27958;BME280;15295;42.658;23.374;2023-04-25T00:40:20;93802.16;;;16.26;59.32
27958;BME280;15295;42.658;23.374;2023-04-25T00:42:46;93813.81;;;16.30;59.33
27958;BME280;15295;42.658;23.374;2023-04-25T00:45:14;93801.25;;;16.29;59.22
27958;BME280;15295;42.658;23.374;2023-04-25T00:47:41;93793.88;;;16.26;59.39
27958;BME280;15295;42.658;23.374;2023-04-25T00:50:09;93788.88;;;16.33;59.16
27958;BME280;15295;42.658;23.374;2023-04-25T00:52:34;93799.91;;;16.33;59.14
27958;BME280;15295;42.658;23.374;2023-04-25T00:55:00;93795.84;;;16.16;59.24
27958;BME280;15295;42.658;23.374;2023-04-25T00:57:26;93790.00;;;16.14;59.21
27958;BME280;15295;42.658;23.374;2023-04-25T00:59:52;93791.84;;;16.17;59.23
27958;BME280;15295;42.658;23.374;2023-04-25T01:02:19;93794.09;;;16.09;59.24
27958;BME280;15295;42.658;23.374;2023-04-25T01:04:46;93795.47;;;16.05;59.30
27958;BME280;15295;42.658;23.374;2023-04-25T01:07:12;93797.03;;;16.15;59.32
27958;BME280;15295;42.658;23.374;2023-04-25T01:09:38;93773.97;;;16.00;59.05
27958;BME280;15295;42.658;23.374;2023-04-25T01:12:03;93774.34;;;16.11;59.14
27958;BME280;15295;42.658;23.374;2023-04-25T01:14:30;93777.78;;;16.24;58.85
27958;BME280;15295;42.658;23.374;2023-04-25T01:16:58;93762.16;;;16.21;58.88
27958;BME280;15295;42.658;23.374;2023-04-25T01:19:26;93769.38;;;16.28;59.01
27958;BME280;15295;42.658;23.374;2023-04-25T01:21:52;93756.88;;;16.36;58.71
27958;BME280;15295;42.658;23.374;2023-04-25T01:24:17;93759.44;;;16.30;58.99
27958;BME280;15295;42.658;23.374;2023-04-25T01:26:43;93757.59;;;16.27;58.93
27958;BME280;15295;42.658;23.374;2023-04-25T01:29:15;93764.41;;;16.44;58.96
27958;BME280;15295;42.658;23.374;2023-04-25T01:31:43;93752.28;;;16.42;58.45
27958;BME280;15295;42.658;23.374;2023-04-25T01:34:09;93754.00;;;16.48;58.42
27958;BME280;15295;42.658;23.374;2023-04-25T01:36:35;93756.25;;;16.41;58.68
27958;BME280;15295;42.658;23.374;2023-04-25T01:39:00;93758.75;;;16.48;58.35
27958;BME280;15295;42.658;23.374;2023-04-25T01:41:26;93774.19;;;16.45;58.48
27958;BME280;15295;42.658;23.374;2023-04-25T01:43:52;93762.38;;;16.36;58.51
27958;BME280;15295;42.658;23.374;2023-04-25T01:46:17;93761.19;;;16.46;58.57
27958;BME280;15295;42.658;23.374;2023-04-25T01:48:43;93775.63;;;16.50;58.47
27958;BME280;15295;42.658;23.374;2023-04-25T01:51:09;93772.53;;;16.48;58.51
27958;BME280;15295;42.658;23.374;2023-04-25T01:53:37;93784.69;;;16.50;58.42
27958;BME280;15295;42.658;23.374;2023-04-25T01:56:02;93788.22;;;16.51;58.35
27958;BME280;15295;42.658;23.374;2023-04-25T01:58:28;93781.47;;;16.52;58.45
27958;BME280;15295;42.658;23.374;2023-04-25T02:00:53;93780.25;;;16.53;58.25
27958;BME280;15295;42.658;23.374;2023-04-25T02:03:19;93779.31;;;16.56;58.19
27958;BME280;15295;42.658;23.374;2023-04-25T02:05:44;93784.06;;;16.55;57.98
27958;BME280;15295;42.658;23.374;2023-04-25T02:08:10;93783.56;;;16.48;57.96
27958;BME280;15295;42.658;23.374;2023-04-25T02:10:36;93769.63;;;16.42;57.93
27958;BME280;15295;42.658;23.374;2023-04-25T02:13:02;93774.03;;;16.40;58.33
27958;BME280;15295;42.658;23.374;2023-04-25T02:15:28;93771.09;;;16.34;58.11
27958;BME280;15295;42.658;23.374;2023-04-25T02:17:53;93771.13;;;16.43;58.00
27958;BME280;15295;42.658;23.374;2023-04-25T02:20:22;93764.41;;;16.44;57.97
27958;BME280;15295;42.658;23.374;2023-04-25T02:22:48;93761.03;;;16.49;57.80
27958;BME280;15295;42.658;23.374;2023-04-25T02:25:14;93757.97;;;16.47;57.53
27958;BME280;15295;42.658;23.374;2023-04-25T02:27:41;93722.38;;;16.31;57.95
27958;BME280;15295;42.658;23.374;2023-04-25T02:30:07;93737.47;;;16.48;57.92
27958;BME280;15295;42.658;23.374;2023-04-25T02:32:33;93733.41;;;16.40;57.60
27958;BME280;15295;42.658;23.374;2023-04-25T02:34:59;93734.97;;;16.41;57.62
27958;BME280;15295;42.658;23.374;2023-04-25T02:37:29;93739.91;;;16.46;57.65
27958;BME280;15295;42.658;23.374;2023-04-25T02:39:55;93740.56;;;16.50;57.70
27958;BME280;15295;42.658;23.374;2023-04-25T02:42:20;93723.94;;;16.41;57.50
27958;BME280;15295;42.658;23.374;2023-04-25T02:44:46;93723.94;;;16.41;57.53
27958;BME280;15295;42.658;23.374;2023-04-25T02:47:11;93746.00;;;16.41;57.33
27958;BME280;15295;42.658;23.374;2023-04-25T02:49:36;93734.34;;;16.37;57.44
27958;BME280;15295;42.658;23.374;2023-04-25T02:52:02;93731.59;;;16.37;57.36
27958;BME280;15295;42.658;23.374;2023-04-25T02:54:27;93728.53;;;16.35;57.55
27958;BME280;15295;42.658;23.374;2023-04-25T02:56:53;93720.84;;;16.30;57.49
27958;BME280;15295;42.658;23.374;2023-04-25T02:59:18;93722.69;;;16.33;57.69
27958;BME280;15295;42.658;23.374;2023-04-25T03:01:43;93720.72;;;16.34;57.55
27958;BME280;15295;42.658;23.374;2023-04-25T03:04:09;93717.63;;;16.32;57.46
27958;BME280;15295;42.658;23.374;2023-04-25T03:06:34;93717.19;;;16.33;57.53
27958;BME280;15295;42.658;23.374;2023-04-25T03:09:00;93721.47;;;16.34;57.34
27958;BME280;15295;42.658;23.374;2023-04-25T03:11:25;93725.00;;;16.35;57.24
27958;BME280;15295;42.658;23.374;2023-04-25T03:13:51;93719.47;;;16.35;57.26
27958;BME280;15295;42.658;23.374;2023-04-25T03:16:16;93700.13;;;16.26;57.35
27958;BME280;15295;42.658;23.374;2023-04-25T03:18:42;93698.47;;;16.28;57.49
27958;BME280;15295;42.658;23.374;2023-04-25T03:21:07;93719.78;;;16.37;57.28
27958;BME280;15295;42.658;23.374;2023-04-25T03:23:33;93721.97;;;16.42;57.14
27958;BME280;15295;42.658;23.374;2023-04-25T03:25:58;93723.34;;;16.46;57.07
27958;BME280;15295;42.658;23.374;2023-04-25T03:28:24;93722.44;;;16.49;56.93
27958;BME280;15295;42.658;23.374;2023-04-25T03:30:49;93725.19;;;16.49;57.21
27958;BME280;15295;42.658;23.374;2023-04-25T03:33:15;93696.66;;;16.34;57.32
27958;BME280;15295;42.658;23.374;2023-04-25T03:35:40;93713.53;;;16.45;57.31
27958;BME280;15295;42.658;23.374;2023-04-25T03:38:06;93710.94;;;16.42;57.41
27958;BME280;15295;42.658;23.374;2023-04-25T03:40:31;93719.34;;;16.47;57.37
27958;BME280;15295;42.658;23.374;2023-04-25T03:42:57;93718.44;;;16.41;57.54
27958;BME280;15295;42.658;23.374;2023-04-25T03:45:22;93723.16;;;16.41;57.58
27958;BME280;15295;42.658;23.374;2023-04-25T03:47:48;93688.81;;;16.23;57.44
27958;BME280;15295;42.658;23.374;2023-04-25T03:50:13;93723.63;;;16.39;57.76
27958;BME280;15295;42.658;23.374;2023-04-25T03:52:39;93728.53;;;16.35;57.72
27958;BME280;15295;42.658;23.374;2023-04-25T03:55:05;93723.47;;;16.34;57.61
27958;BME280;15295;42.658;23.374;2023-04-25T03:57:31;93711.66;;;16.33;57.88
27958;BME280;15295;42.658;23.374;2023-04-25T03:59:57;93709.34;;;16.23;58.45
27958;BME280;15295;42.658;23.374;2023-04-25T04:02:22;93717.47;;;16.26;58.79
27958;BME280;15295;42.658;23.374;2023-04-25T04:04:47;93697.25;;;16.29;58.91
27958;BME280;15295;42.658;23.374;2023-04-25T04:07:13;93714.13;;;16.40;58.97
27958;BME280;15295;42.658;23.374;2023-04-25T04:09:38;93711.56;;;16.46;58.96
27958;BME280;15295;42.658;23.374;2023-04-25T04:12:04;93712.44;;;16.34;59.19
27958;BME280;15295;42.658;23.374;2023-04-25T04:14:30;93728.09;;;16.46;58.67
27958;BME280;15295;42.658;23.374;2023-04-25T04:16:56;93723.53;;;16.52;58.67
27958;BME280;15295;42.658;23.374;2023-04-25T04:19:21;93735.66;;;16.54;57.91
27958;BME280;15295;42.658;23.374;2023-04-25T04:21:47;93734.28;;;16.59;57.74
27958;BME280;15295;42.658;23.374;2023-04-25T04:24:12;93726.50;;;16.66;57.56
27958;BME280;15295;42.658;23.374;2023-04-25T04:26:38;93729.88;;;16.70;57.28
27958;BME280;15295;42.658;23.374;2023-04-25T04:29:04;93713.00;;;16.59;57.43
27958;BME280;15295;42.658;23.374;2023-04-25T04:31:29;93708.84;;;16.55;57.60
27958;BME280;15295;42.658;23.374;2023-04-25T04:33:55;93726.03;;;16.59;57.30
27958;BME280;15295;42.658;23.374;2023-04-25T04:36:20;93736.75;;;16.66;57.47
27958;BME280;15295;42.658;23.374;2023-04-25T04:38:47;93718.84;;;16.61;57.28
27958;BME280;15295;42.658;23.374;2023-04-25T04:41:12;93725.53;;;16.51;56.24
27958;BME280;15295;42.658;23.374;2023-04-25T04:43:38;93720.72;;;16.34;56.47
27958;BME280;15295;42.658;23.374;2023-04-25T04:46:05;93716.56;;;16.29;56.68
27958;BME280;15295;42.658;23.374;2023-04-25T04:48:33;93704.91;;;16.25;57.30
27958;BME280;15295;42.658;23.374;2023-04-25T04:51:04;93722.91;;;16.48;56.72
27958;BME280;15295;42.658;23.374;2023-04-25T04:53:30;93725.16;;;16.40;56.32
27958;BME280;15295;42.658;23.374;2023-04-25T04:55:55;93707.66;;;16.25;55.89
27958;BME280;15295;42.658;23.374;2023-04-25T04:58:27;93743.81;;;16.36;56.45
27958;BME280;15295;42.658;23.374;2023-04-25T05:00:54;93709.97;;;16.27;56.56
27958;BME280;15295;42.658;23.374;2023-04-25T05:03:20;93735.03;;;16.50;56.32
27958;BME280;15295;42.658;23.374;2023-04-25T05:05:45;93733.75;;;16.42;56.47
27958;BME280;15295;42.658;23.374;2023-04-25T05:08:11;93735.81;;;16.51;56.38
27958;BME280;15295;42.658;23.374;2023-04-25T05:10:36;93708.59;;;16.31;56.91
27958;BME280;15295;42.658;23.374;2023-04-25T05:13:02;93752.06;;;16.58;57.08
27958;BME280;15295;42.658;23.374;2023-04-25T05:15:27;93754.38;;;16.68;56.87
27958;BME280;15295;42.658;23.374;2023-04-25T05:17:53;93754.06;;;16.66;57.12
27958;BME280;15295;42.658;23.374;2023-04-25T05:20:18;93768.69;;;16.76;57.08
27958;BME280;15295;42.658;23.374;2023-04-25T05:22:44;93751.63;;;16.59;57.12
27958;BME280;15295;42.658;23.374;2023-04-25T05:25:10;93754.25;;;16.72;57.12
27958;BME280;15295;42.658;23.374;2023-04-25T05:27:35;93719.56;;;16.62;57.22
27958;BME280;15295;42.658;23.374;2023-04-25T05:30:01;93721.16;;;16.72;57.33
27958;BME280;15295;42.658;23.374;2023-04-25T05:32:26;93722.03;;;16.60;57.16
27958;BME280;15295;42.658;23.374;2023-04-25T05:34:52;93735.41;;;16.79;57.46
27958;BME280;15295;42.658;23.374;2023-04-25T05:37:20;93744.50;;;16.89;57.35
27958;BME280;15295;42.658;23.374;2023-04-25T05:39:48;93755.53;;;16.89;57.35
27958;BME280;15295;42.658;23.374;2023-04-25T05:42:13;93740.03;;;16.82;57.25
27958;BME280;15295;42.658;23.374;2023-04-25T05:44:39;93752.47;;;16.87;56.68
27958;BME280;15295;42.658;23.374;2023-04-25T05:47:04;93750.13;;;16.85;56.45
27958;BME280;15295;42.658;23.374;2023-04-25T05:49:30;93751.41;;;16.93;56.40
27958;BME280;15295;42.658;23.374;2023-04-25T05:51:55;93743.44;;;16.95;56.36
27958;BME280;15295;42.658;23.374;2023-04-25T05:54:22;93737.25;;;16.91;56.22
27958;BME280;15295;42.658;23.374;2023-04-25T05:56:48;93761.53;;;17.15;55.93
27958;BME280;15295;42.658;23.374;2023-04-25T05:59:16;93731.00;;;17.00;55.80
27958;BME280;15295;42.658;23.374;2023-04-25T06:01:49;93749.25;;;17.16;55.68
27958;BME280;15295;42.658;23.374;2023-04-25T06:04:26;93755.69;;;17.22;54.67
27958;BME280;15295;42.658;23.374;2023-04-25T06:06:52;93728.13;;;17.13;54.49
27958;BME280;15295;42.658;23.374;2023-04-25T06:09:17;93758.47;;;17.31;53.93
27958;BME280;15295;42.658;23.374;2023-04-25T06:11:47;93727.66;;;17.14;53.97
27958;BME280;15295;42.658;23.374;2023-04-25T06:14:15;93701.41;;;17.01;54.42
27958;BME280;15295;42.658;23.374;2023-04-25T06:16:53;93741.44;;;17.32;54.10
27958;BME280;15295;42.658;23.374;2023-04-25T06:19:21;93729.31;;;17.12;53.78
27958;BME280;15295;42.658;23.374;2023-04-25T06:22:02;93753.72;;;17.31;54.17
27958;BME280;15295;42.658;23.374;2023-04-25T06:24:30;93761.38;;;17.45;54.09
27958;BME280;15295;42.658;23.374;2023-04-25T06:27:01;93769.53;;;17.49;54.15
27958;BME280;15295;42.658;23.374;2023-04-25T06:29:26;93758.00;;;17.32;53.67
27958;BME280;15295;42.658;23.374;2023-04-25T06:31:52;93709.38;;;16.98;53.58
27958;BME280;15295;42.658;23.374;2023-04-25T06:34:17;93771.69;;;17.45;53.59
27958;BME280;15295;42.658;23.374;2023-04-25T06:36:49;93755.72;;;17.40;52.84
27958;BME280;15295;42.658;23.374;2023-04-25T06:39:15;93758.19;;;17.47;52.86
27958;BME280;15295;42.658;23.374;2023-04-25T06:41:41;93765.88;;;17.61;52.47
27958;BME280;15295;42.658;23.374;2023-04-25T06:44:07;93769.69;;;17.82;52.53
27958;BME280;15295;42.658;23.374;2023-04-25T06:46:33;93776.28;;;17.93;52.20
27958;BME280;15295;42.658;23.374;2023-04-25T06:48:58;93773.81;;;17.95;51.40
27958;BME280;15295;42.658;23.374;2023-04-25T06:51:24;93765.97;;;18.03;51.64
27958;BME280;15295;42.658;23.374;2023-04-25T06:53:49;93756.31;;;17.98;51.61
27958;BME280;15295;42.658;23.374;2023-04-25T06:56:16;93748.03;;;17.98;51.40
27958;BME280;15295;42.658;23.374;2023-04-25T06:58:42;93771.44;;;18.21;50.65
27958;BME280;15295;42.658;23.374;2023-04-25T07:01:11;93739.38;;;18.14;50.05
27958;BME280;15295;42.658;23.374;2023-04-25T07:03:36;93773.09;;;18.36;49.70
27958;BME280;15295;42.658;23.374;2023-04-25T07:06:04;93753.56;;;18.40;49.43
27958;BME280;15295;42.658;23.374;2023-04-25T07:08:31;93769.66;;;18.60;48.99
27958;BME280;15295;42.658;23.374;2023-04-25T07:10:56;93762.13;;;18.60;48.63
27958;BME280;15295;42.658;23.374;2023-04-25T07:13:22;93762.72;;;18.64;48.16
27958;BME280;15295;42.658;23.374;2023-04-25T07:15:47;93773.94;;;18.61;48.43
27958;BME280;15295;42.658;23.374;2023-04-25T07:18:14;93762.94;;;18.42;48.44
27958;BME280;15295;42.658;23.374;2023-04-25T07:20:40;93759.41;;;18.42;48.40
27958;BME280;15295;42.658;23.374;2023-04-25T07:23:05;93752.50;;;18.46;48.71
27958;BME280;15295;42.658;23.374;2023-04-25T07:25:31;93758.41;;;18.63;48.61
27958;BME280;15295;42.658;23.374;2023-04-25T07:27:57;93767.44;;;18.73;48.48
27958;BME280;15295;42.658;23.374;2023-04-25T07:30:24;93769.03;;;18.88;48.06
27958;BME280;15295;42.658;23.374;2023-04-25T07:33:02;93768.94;;;19.06;48.49
27958;BME280;15295;42.658;23.374;2023-04-25T07:35:29;93770.41;;;19.16;47.76
27958;BME280;15295;42.658;23.374;2023-04-25T07:37:55;93751.22;;;19.13;46.98
27958;BME280;15295;42.658;23.374;2023-04-25T07:40:20;93759.19;;;19.20;47.25
27958;BME280;15295;42.658;23.374;2023-04-25T07:42:46;93750.50;;;19.27;47.19
27958;BME280;15295;42.658;23.374;2023-04-25T07:45:12;93746.78;;;19.30;47.43
27958;BME280;15295;42.658;23.374;2023-04-25T07:47:37;93757.69;;;19.34;47.58
27958;BME280;15295;42.658;23.374;2023-04-25T07:50:04;93737.53;;;19.33;47.44
27958;BME280;15295;42.658;23.374;2023-04-25T07:52:30;93755.47;;;19.47;47.24
27958;BME280;15295;42.658;23.374;2023-04-25T07:54:58;93748.31;;;19.55;47.46
27958;BME280;15295;42.658;23.374;2023-04-25T07:57:28;93729.59;;;19.64;47.06
27958;BME280;15295;42.658;23.374;2023-04-25T07:59:57;93760.97;;;19.70;46.62
27958;BME280;15295;42.658;23.374;2023-04-25T08:02:22;93738.56;;;19.59;46.85
27958;BME280;15295;42.658;23.374;2023-04-25T08:04:47;93747.03;;;19.79;46.18
27958;BME280;15295;42.658;23.374;2023-04-25T08:07:14;93749.44;;;19.86;46.29
27958;BME280;15295;42.658;23.374;2023-04-25T08:09:40;93734.88;;;19.91;45.97
27958;BME280;15295;42.658;23.374;2023-04-25T08:12:05;93750.81;;;20.20;46.42
27958;BME280;15295;42.658;23.374;2023-04-25T08:14:31;93760.53;;;20.45;45.91
27958;BME280;15295;42.658;23.374;2023-04-25T08:17:01;93736.31;;;20.60;44.67
27958;BME280;15295;42.658;23.374;2023-04-25T08:19:29;93736.16;;;20.84;44.10
27958;BME280;15295;42.658;23.374;2023-04-25T08:21:58;93724.63;;;21.05;42.85
27958;BME280;15295;42.658;23.374;2023-04-25T08:24:24;93743.81;;;21.43;42.55
27958;BME280;15295;42.658;23.374;2023-04-25T08:26:50;93726.16;;;21.46;42.58
27958;BME280;15295;42.658;23.374;2023-04-25T08:29:22;93740.44;;;21.80;42.52
27958;BME280;15295;42.658;23.374;2023-04-25T08:31:52;93737.38;;;21.98;42.04
27958;BME280;15295;42.658;23.374;2023-04-25T08:34:19;93723.75;;;22.00;41.33
27958;BME280;15295;42.658;23.374;2023-04-25T08:36:57;93722.84;;;22.14;41.13
27958;BME280;15295;42.658;23.374;2023-04-25T08:39:27;93724.50;;;22.26;40.93
27958;BME280;15295;42.658;23.374;2023-04-25T08:41:54;93716.84;;;22.21;41.27
27958;BME280;15295;42.658;23.374;2023-04-25T08:44:22;93727.81;;;22.30;41.14
27958;BME280;15295;42.658;23.374;2023-04-25T08:46:47;93737.06;;;22.47;40.41
27958;BME280;15295;42.658;23.374;2023-04-25T08:49:17;93740.34;;;22.46;40.26
27958;BME280;15295;42.658;23.374;2023-04-25T08:51:47;93765.63;;;22.42;41.23
27958;BME280;15295;42.658;23.374;2023-04-25T08:54:13;93750.53;;;22.23;40.48
27958;BME280;15295;42.658;23.374;2023-04-25T08:56:48;93745.50;;;22.27;39.46
27958;BME280;15295;42.658;23.374;2023-04-25T08:59:16;93740.56;;;22.42;40.25
27958;BME280;15295;42.658;23.374;2023-04-25T09:01:43;93750.75;;;22.76;40.48
27958;BME280;15295;42.658;23.374;2023-04-25T09:04:11;93747.78;;;22.85;42.81
27958;BME280;15295;42.658;23.374;2023-04-25T09:06:40;93718.13;;;22.82;42.10
27958;BME280;15295;42.658;23.374;2023-04-25T09:09:10;93722.34;;;23.09;41.41
27958;BME280;15295;42.658;23.374;2023-04-25T09:11:36;93720.03;;;23.08;41.09
27958;BME280;15295;42.658;23.374;2023-04-25T09:14:19;93725.50;;;23.33;41.27
27958;BME280;15295;42.658;23.374;2023-04-25T09:21:54;93711.47;;;23.17;40.81
27958;BME280;15295;42.658;23.374;2023-04-25T09:24:36;93714.78;;;23.15;40.45
27958;BME280;15295;42.658;23.374;2023-04-25T09:27:04;93709.38;;;23.00;40.28
27958;BME280;15295;42.658;23.374;2023-04-25T09:29:40;93704.25;;;22.93;39.60
27958;BME280;15295;42.658;23.374;2023-04-25T09:32:22;93710.81;;;22.90;40.17
27958;BME280;15295;42.658;23.374;2023-04-25T09:34:57;93712.28;;;22.80;40.22
27958;BME280;15295;42.658;23.374;2023-04-25T09:37:26;93710.41;;;22.66;40.58
27958;BME280;15295;42.658;23.374;2023-04-25T09:40:05;93698.91;;;22.53;40.21
27958;BME280;15295;42.658;23.374;2023-04-25T09:42:31;93713.75;;;22.45;40.07
27958;BME280;15295;42.658;23.374;2023-04-25T09:45:00;93709.59;;;22.29;40.39
27958;BME280;15295;42.658;23.374;2023-04-25T09:47:27;93709.09;;;22.31;40.95
27958;BME280;15295;42.658;23.374;2023-04-25T09:49:55;93714.50;;;22.14;41.98
27958;BME280;15295;42.658;23.374;2023-04-25T09:52:23;93710.81;;;21.97;41.93
27958;BME280;15295;42.658;23.374;2023-04-25T09:54:50;93709.03;;;21.74;43.04
27958;BME280;15295;42.658;23.374;2023-04-25T09:57:22;93703.34;;;21.63;43.59
27958;BME280;15295;42.658;23.374;2023-04-25T09:59:50;93688.19;;;21.64;43.74
27958;BME280;15295;42.658;23.374;2023-04-25T10:02:25;93680.28;;;21.57;42.44
27958;BME280;15295;42.658;23.374;2023-04-25T10:04:53;93680.69;;;21.49;41.61
27958;BME280;15295;42.658;23.374;2023-04-25T10:07:27;93708.22;;;21.68;41.73
27958;BME280;15295;42.658;23.374;2023-04-25T10:10:01;93703.72;;;21.50;42.41
27958;BME280;15295;42.658;23.374;2023-04-25T10:12:30;93692.13;;;21.31;41.19
27958;BME280;15295;42.658;23.374;2023-04-25T10:14:59;93695.91;;;21.54;41.93
27958;BME280;15295;42.658;23.374;2023-04-25T10:17:28;93681.88;;;21.43;41.90
27958;BME280;15295;42.658;23.374;2023-04-25T10:19:55;93703.63;;;21.65;41.51
27958;BME280;15295;42.658;23.374;2023-04-25T10:22:41;93708.47;;;21.70;41.48
27958;BME280;15295;42.658;23.374;2023-04-25T10:25:08;93715.34;;;21.74;43.53
27958;BME280;15295;42.658;23.374;2023-04-25T10:27:35;93714.16;;;21.81;43.97
27958;BME280;15295;42.658;23.374;2023-04-25T10:30:13;93710.13;;;21.82;45.01
27958;BME280;15295;42.658;23.374;2023-04-25T10:32:42;93707.34;;;21.82;45.80
27958;BME280;15295;42.658;23.374;2023-04-25T10:35:19;93693.59;;;21.98;45.67
27958;BME280;15295;42.658;23.374;2023-04-25T10:40:30;93700.06;;;22.72;43.75
27958;BME280;15295;42.658;23.374;2023-04-25T10:42:55;93657.13;;;22.53;40.46
27958;BME280;15295;42.658;23.374;2023-04-25T10:45:53;93684.72;;;22.88;42.27
27958;BME280;15295;42.658;23.374;2023-04-25T10:48:28;93696.06;;;23.27;43.12
27958;BME280;15295;42.658;23.374;2023-04-25T10:51:10;93717.16;;;23.33;42.44
27958;BME280;15295;42.658;23.374;2023-04-25T10:53:36;93703.31;;;23.08;41.09
27958;BME280;15295;42.658;23.374;2023-04-25T10:58:42;93701.09;;;22.75;39.91
27958;BME280;15295;42.658;23.374;2023-04-25T11:01:07;93688.97;;;22.47;38.65
27958;BME280;15295;42.658;23.374;2023-04-25T11:03:38;93704.09;;;22.40;38.95
27958;BME280;15295;42.658;23.374;2023-04-25T11:06:14;93687.44;;;22.14;39.60
27958;BME280;15295;42.658;23.374;2023-04-25T11:08:49;93689.47;;;22.14;39.78
27958;BME280;15295;42.658;23.374;2023-04-25T11:11:17;93697.25;;;22.36;40.25
27958;BME280;15295;42.658;23.374;2023-04-25T11:13:43;93688.97;;;22.47;39.49
27958;BME280;15295;42.658;23.374;2023-04-25T11:16:09;93656.47;;;22.33;38.30
27958;BME280;15295;42.658;23.374;2023-04-25T11:18:34;93686.22;;;22.52;36.91
27958;BME280;15295;42.658;23.374;2023-04-25T11:21:00;93677.59;;;22.50;37.69
27958;BME280;15295;42.658;23.374;2023-04-25T11:23:29;93677.78;;;22.72;38.71
27958;BME280;15295;42.658;23.374;2023-04-25T11:25:55;93673.09;;;22.58;38.52
27958;BME280;15295;42.658;23.374;2023-04-25T11:28:21;93683.34;;;22.41;38.61
27958;BME280;15295;42.658;23.374;2023-04-25T11:30:49;93679.22;;;22.31;39.58
27958;BME280;15295;42.658;23.374;2023-04-25T11:33:17;93682.97;;;22.22;40.27
27958;BME280;15295;42.658;23.374;2023-04-25T11:35:43;93672.22;;;22.10;40.81
27958;BME280;15295;42.658;23.374;2023-04-25T11:38:08;93686.03;;;21.99;39.96
27958;BME280;15295;42.658;23.374;2023-04-25T11:40:35;93669.81;;;21.72;40.39
27958;BME280;15295;42.658;23.374;2023-04-25T11:43:01;93682.69;;;21.69;41.43
27958;BME280;15295;42.658;23.374;2023-04-25T11:45:27;93683.09;;;21.62;41.89
27958;BME280;15295;42.658;23.374;2023-04-25T11:47:52;93687.31;;;21.52;42.29
27958;BME280;15295;42.658;23.374;2023-04-25T11:50:18;93686.97;;;21.44;42.45
27958;BME280;15295;42.658;23.374;2023-04-25T11:52:45;93704.91;;;21.43;42.47
27958;BME280;15295;42.658;23.374;2023-04-25T11:55:19;93694.63;;;21.29;44.10
27958;BME280;15295;42.658;23.374;2023-04-25T11:57:48;93698.47;;;20.97;40.57
27958;BME280;15295;42.658;23.374;2023-04-25T12:00:18;93697.22;;;20.78;41.21
27958;BME280;15295;42.658;23.374;2023-04-25T12:02:55;93713.09;;;20.43;41.44
27958;BME280;15295;42.658;23.374;2023-04-25T12:05:27;93704.59;;;20.02;44.78
27958;BME280;15295;42.658;23.374;2023-04-25T12:07:53;93662.03;;;19.62;43.72
27958;BME280;15295;42.658;23.374;2023-04-25T12:10:19;93660.69;;;19.57;45.90
27958;BME280;15295;42.658;23.374;2023-04-25T12:12:46;93678.16;;;19.49;44.88
27958;BME280;15295;42.658;23.374;2023-04-25T12:15:24;93660.69;;;19.43;44.90
27958;BME280;15295;42.658;23.374;2023-04-25T12:17:51;93673.06;;;19.33;43.63
27958;BME280;15295;42.658;23.374;2023-04-25T12:20:19;93654.22;;;19.22;43.66
27958;BME280;15295;42.658;23.374;2023-04-25T12:42:06;93653.69;;;20.35;44.48
27958;BME280;15295;42.658;23.374;2023-04-25T12:49:55;93728.47;;;20.58;43.79
27958;BME280;15295;42.658;23.374;2023-04-25T12:52:27;93725.53;;;20.47;44.74
27958;BME280;15295;42.658;23.374;2023-04-25T12:54:58;93725.25;;;20.45;45.55
27958;BME280;15295;42.658;23.374;2023-04-25T12:57:37;93707.34;;;20.32;46.19
27958;BME280;15295;42.658;23.374;2023-04-25T13:00:04;93678.38;;;20.04;46.06
27958;BME280;15295;42.658;23.374;2023-04-25T13:02:40;93706.00;;;20.13;45.06
27958;BME280;15295;42.658;23.374;2023-04-25T13:05:06;93730.13;;;20.21;45.82
27958;BME280;15295;42.658;23.374;2023-04-25T13:07:31;93736.47;;;20.22;46.75
27958;BME280;15295;42.658;23.374;2023-04-25T13:15:24;93739.66;;;19.76;46.34
27958;BME280;15295;42.658;23.374;2023-04-25T13:34:17;93686.94;;;18.62;50.55
27958;BME280;15295;42.658;23.374;2023-04-25T13:36:43;93730.47;;;18.85;51.08
27958;BME280;15295;42.658;23.374;2023-04-25T13:39:08;93731.22;;;18.62;52.37
27958;BME280;15295;42.658;23.374;2023-04-25T13:41:35;93703.28;;;18.41;51.98
27958;BME280;15295;42.658;23.374;2023-04-25T13:44:00;93737.84;;;18.55;52.08
27958;BME280;15295;42.658;23.374;2023-04-25T13:46:26;93743.72;;;18.48;52.45
27958;BME280;15295;42.658;23.374;2023-04-25T13:48:52;93735.78;;;18.32;52.25